This is the latest recevied weather packets stored in our database for station/object SV1TQE-1. If no packets are shown the sender has not sent any weather packets the latest 10 day(s).
| Time | Temp. | Humidity | Pressure | Rain* | Wind** | Luminosity | Snow |
|---|---|---|---|---|---|---|---|
| 1787746918 | 39.44° C | 51% | 1015.8 hPa | - | - | - | - |
| 1787746033 | 40° C | 49% | 1015.8 hPa | - | - | - | - |
| 1787745132 | 41.67° C | 41% | 1015.8 hPa | - | - | - | - |
| 1787744241 | 41.67° C | 41% | 1015.9 hPa | - | - | - | - |
| 1787743331 | 42.78° C | 35% | 1016 hPa | - | - | - | - |
| 1787742431 | 41.67° C | 38% | 1016 hPa | - | - | - | - |
| 1787741531 | 41.67° C | 38% | 1016.2 hPa | - | - | - | - |
| 1787740631 | 41.67° C | 40% | 1016.4 hPa | - | - | - | - |
| 1787739731 | 41.11° C | 43% | 1016.6 hPa | - | - | - | - |
| 1787738831 | 40° C | 44% | 1016.7 hPa | - | - | - | - |
| 1787737931 | 40° C | 45% | 1016.7 hPa | - | - | - | - |
| 1787737031 | 39.44° C | 45% | 1016.8 hPa | - | - | - | - |
| 1787736130 | 40° C | 44% | 1017 hPa | - | - | - | - |
| 1787735230 | 39.44° C | 45% | 1017.1 hPa | - | - | - | - |
| 1787734330 | 39.44° C | 45% | 1017.2 hPa | - | - | - | - |
| 1787733430 | 38.89° C | 45% | 1017.3 hPa | - | - | - | - |
| 1787732530 | 38.89° C | 45% | 1017.4 hPa | - | - | - | - |
| 1787731629 | 37.78° C | 46% | 1017.5 hPa | - | - | - | - |
| 1787730733 | 37.22° C | 49% | 1017.4 hPa | - | - | - | - |
| 1787729829 | 36.67° C | 50% | 1017.5 hPa | - | - | - | - |
| 1787728929 | 35.56° C | 52% | 1017.4 hPa | - | - | - | - |
| 1787728029 | 36.11° C | 50% | 1017.4 hPa | - | - | - | - |
| 1787727129 | 35.56° C | 46% | 1017.5 hPa | - | - | - | - |
| 1787726229 | 36.11° C | 48% | 1017.5 hPa | - | - | - | - |
| 1787725329 | 35.56° C | 49% | 1017.6 hPa | - | - | - | - |
* Rain since midnight (hover to see other rain measurements)
** Current wind speed in m/s (hover to see current wind gust speed)